»·PEaware :: N88HQ KBUR-KLAS

N88HQ :: KBUR-KLAS

FLIGHT INFORMATION

Flight Status: Arrived
Operator: Privately registered:
United States
More flights under this callsign
Pilot: Norbert L. (24124)
Aircraft: CESSNA 172 SKYHAWK
(C172)
More flights by this aircraft type
Origin: KBUR Bob Hope-Burbank
United States
Destination: KLAS McCarran Intl
United States
More flights between these airports :: More routes between these airports
Route: VNY3 DAG CRESO4
File this flight plan on PilotEdge
Remarks:
Altitude:
(Current/Filed)
11,000ft
Speed:
(Current/Filed)
120kts
Departed: 08-Apr-21 10:12 AM
Arrived: 08-Apr-21 12:06 PM
Distance/Time
Traveled:
193nm/1:54
Distance/Time
To Go:
Arrived

Flight Plot

Page will automatically refresh every two minutes.

Flight plan parsing failed; only flown route is shown


Map Options




Map Legend


Flown Route
Filed Route
Departure Airport
Arrival Airport
Navaid (VOR, NDB)
Fix

Horizontal Profiles

Position Reports

Time Latitude Longitude Heading Altitude Ground
Speed
08-Apr-21 09:45 34.196224 -118.367802 1 721ft 0kts
08-Apr-21 09:46 34.196224 -118.367802 1 721ft 0kts
08-Apr-21 09:47 34.196224 -118.367802 1 721ft 0kts
08-Apr-21 09:48 34.196224 -118.367802 1 721ft 0kts
08-Apr-21 09:49 34.196224 -118.367802 1 721ft 0kts
08-Apr-21 09:50 34.196224 -118.367802 1 721ft 0kts
08-Apr-21 09:51 34.196224 -118.367802 1 721ft 0kts
08-Apr-21 09:52 34.196224 -118.367802 1 721ft 0kts
08-Apr-21 09:53 34.196224 -118.367802 1 721ft 0kts
08-Apr-21 09:54 34.196224 -118.367802 1 721ft 0kts
08-Apr-21 09:55 34.196224 -118.367802 1 721ft 0kts
08-Apr-21 09:56 34.196224 -118.367802 1 721ft 0kts
08-Apr-21 09:57 34.196224 -118.367802 1 721ft 0kts
08-Apr-21 09:58 34.196224 -118.367802 1 721ft 0kts
08-Apr-21 09:59 34.196224 -118.367802 1 721ft 0kts
08-Apr-21 10:00 34.196224 -118.367802 1 721ft 0kts
08-Apr-21 10:01 34.196224 -118.367802 1 721ft 0kts
08-Apr-21 10:02 34.196224 -118.367802 1 721ft 0kts
08-Apr-21 10:03 34.196224 -118.367802 1 721ft 0kts
08-Apr-21 10:04 34.196224 -118.367802 1 721ft 0kts
08-Apr-21 10:05 34.196224 -118.367802 1 721ft 0kts
08-Apr-21 10:06 34.196224 -118.367802 1 721ft 0kts
08-Apr-21 10:07 34.196567 -118.368274 235 722ft 4kts
08-Apr-21 10:08 34.196918 -118.366946 283 723ft 6kts
08-Apr-21 10:09 34.197040 -118.368876 308 723ft 0kts
08-Apr-21 10:10 34.197139 -118.368974 330 724ft 4kts
08-Apr-21 10:11 34.197914 -118.364995 91 722ft 69kts
08-Apr-21 10:12 34.196304 -118.339038 127 1568ft 76kts
08-Apr-21 10:13 34.177737 -118.349920 228 2371ft 93kts
08-Apr-21 10:14 34.161537 -118.375384 251 3177ft 100kts
08-Apr-21 10:15 34.176114 -118.391809 355 3927ft 72kts
08-Apr-21 10:16 34.196324 -118.395812 355 4433ft 78kts
08-Apr-21 10:17 34.221050 -118.397782 355 4901ft 104kts
08-Apr-21 10:18 34.252157 -118.396654 15 5390ft 118kts
08-Apr-21 10:19 34.282878 -118.386853 17 5915ft 103kts
08-Apr-21 10:20 34.308620 -118.378519 13 6411ft 91kts
08-Apr-21 10:21 34.333282 -118.371776 9 6916ft 92kts
08-Apr-21 10:22 34.358291 -118.364191 7 7416ft 93kts
08-Apr-21 10:23 34.383490 -118.356479 5 7913ft 93kts
08-Apr-21 10:24 34.408085 -118.348885 2 8502ft 86kts
08-Apr-21 10:25 34.430257 -118.342197 359 9087ft 84kts
08-Apr-21 10:26 34.453193 -118.335190 359 9572ft 88kts
08-Apr-21 10:27 34.474365 -118.315485 39 9993ft 113kts
08-Apr-21 10:28 34.493022 -118.285462 38 10475ft 110kts
08-Apr-21 10:29 34.511425 -118.256124 37 10960ft 108kts
08-Apr-21 10:30 34.531928 -118.223841 41 10999ft 138kts
08-Apr-21 10:31 34.554596 -118.186945 40 10991ft 134kts
08-Apr-21 10:32 34.577116 -118.150907 40 10991ft 134kts
08-Apr-21 10:33 34.599620 -118.114831 40 10990ft 133kts
08-Apr-21 10:34 34.621987 -118.078949 40 10989ft 133kts
08-Apr-21 10:35 34.634473 -118.036113 75 10985ft 146kts
08-Apr-21 10:36 34.639785 -117.988001 75 10979ft 146kts
08-Apr-21 10:37 34.644700 -117.943105 75 10974ft 146kts
08-Apr-21 10:38 34.649521 -117.898832 75 10967ft 146kts
08-Apr-21 10:39 34.654884 -117.849478 75 10960ft 147kts
08-Apr-21 10:40 34.659963 -117.802544 75 10957ft 146kts
08-Apr-21 10:42 34.665183 -117.759024 63 10957ft 143kts
08-Apr-21 10:43 34.675991 -117.717659 64 10957ft 143kts
08-Apr-21 10:44 34.687855 -117.671397 64 10958ft 143kts
08-Apr-21 10:45 34.700478 -117.622092 64 10962ft 144kts
08-Apr-21 10:46 34.712357 -117.575656 64 10964ft 144kts
08-Apr-21 10:47 34.724266 -117.529020 64 10964ft 144kts
08-Apr-21 10:48 34.736194 -117.482229 64 10965ft 144kts
08-Apr-21 10:49 34.748047 -117.435653 64 10965ft 144kts
08-Apr-21 10:50 34.759949 -117.388796 64 10965ft 144kts
08-Apr-21 10:51 34.771782 -117.342134 65 10960ft 144kts
08-Apr-21 10:52 34.783582 -117.295536 65 10954ft 144kts
08-Apr-21 10:53 34.795395 -117.248795 65 10949ft 144kts
08-Apr-21 10:54 34.807100 -117.202383 64 10941ft 144kts
08-Apr-21 10:55 34.818875 -117.155605 64 10933ft 145kts
08-Apr-21 10:56 34.830250 -117.110350 64 11024ft 141kts
08-Apr-21 10:57 34.841599 -117.065134 65 11017ft 143kts
08-Apr-21 10:58 34.853201 -117.018730 65 11012ft 141kts
08-Apr-21 10:59 34.864519 -116.973423 66 11009ft 138kts
08-Apr-21 11:00 34.875600 -116.929028 66 11007ft 136kts
08-Apr-21 11:01 34.886394 -116.885702 67 11007ft 133kts
08-Apr-21 11:01 34.895323 -116.849824 67 11007ft 132kts
08-Apr-21 11:03 34.908167 -116.800039 72 11006ft 132kts
08-Apr-21 11:04 34.913417 -116.755447 78 11007ft 133kts
08-Apr-21 11:05 34.920591 -116.711527 70 11008ft 131kts
08-Apr-21 11:06 34.937828 -116.673924 60 11007ft 129kts
08-Apr-21 11:06 34.947535 -116.638945 70 11007ft 131kts
08-Apr-21 11:07 34.955475 -116.595541 73 11006ft 131kts
08-Apr-21 11:09 34.964725 -116.544981 66 11004ft 129kts
08-Apr-21 11:10 34.982490 -116.509729 30 11000ft 122kts
08-Apr-21 11:11 35.000680 -116.473215 56 10999ft 127kts
08-Apr-21 11:11 35.014406 -116.441468 57 10995ft 127kts
08-Apr-21 11:12 35.031516 -116.404020 51 10991ft 125kts
08-Apr-21 11:13 35.049934 -116.368019 54 10989ft 125kts
08-Apr-21 11:14 35.067249 -116.330936 57 10987ft 125kts
08-Apr-21 11:15 35.083720 -116.293516 57 10987ft 125kts
08-Apr-21 11:16 35.103930 -116.260142 57 10989ft 125kts
08-Apr-21 11:17 35.120191 -116.222517 57 10989ft 125kts
08-Apr-21 11:18 35.136679 -116.184964 57 10989ft 125kts
08-Apr-21 11:19 35.153188 -116.147468 57 10989ft 125kts
08-Apr-21 11:20 35.169757 -116.109795 57 10989ft 125kts
08-Apr-21 11:21 35.186493 -116.072330 51 10989ft 124kts
08-Apr-21 11:22 35.199804 -116.032626 63 10989ft 126kts
08-Apr-21 11:23 35.214335 -115.993509 60 10989ft 126kts
08-Apr-21 11:24 35.229755 -115.955059 59 10989ft 126kts
08-Apr-21 11:25 35.245710 -115.916869 58 10989ft 126kts
08-Apr-21 11:26 35.262367 -115.879442 39 10984ft 123kts
08-Apr-21 11:27 35.276365 -115.840547 60 10981ft 126kts
08-Apr-21 11:28 35.291359 -115.801475 60 10976ft 126kts
08-Apr-21 11:29 35.309961 -115.766975 17 10974ft 119kts
08-Apr-21 11:30 35.345479 -115.749347 24 10200ft 145kts
08-Apr-21 11:31 35.376600 -115.722026 35 10044ft 130kts
08-Apr-21 11:32 35.391829 -115.683173 57 10041ft 128kts
08-Apr-21 11:33 35.413696 -115.649688 42 10041ft 125kts
08-Apr-21 11:34 35.437382 -115.618088 42 10041ft 125kts
08-Apr-21 11:35 35.460055 -115.585640 38 10041ft 124kts
08-Apr-21 11:36 35.484416 -115.555111 42 10041ft 125kts
08-Apr-21 11:37 35.508000 -115.523542 42 10041ft 125kts
08-Apr-21 11:38 35.531567 -115.491948 42 10041ft 125kts
08-Apr-21 11:39 35.555108 -115.460374 42 10041ft 125kts
08-Apr-21 11:40 35.578726 -115.428669 42 10041ft 125kts
08-Apr-21 11:41 35.604766 -115.393665 43 9444ft 149kts
08-Apr-21 11:42 35.632717 -115.355965 44 8756ft 152kts
08-Apr-21 11:43 35.661315 -115.317427 45 8053ft 152kts
08-Apr-21 11:44 35.689369 -115.279532 46 7351ft 144kts
08-Apr-21 11:45 35.714939 -115.245032 45 7051ft 127kts
08-Apr-21 11:46 35.738284 -115.213563 45 7052ft 123kts
08-Apr-21 11:47 35.761327 -115.182400 45 7051ft 123kts
08-Apr-21 11:48 35.785849 -115.154174 17 7048ft 120kts
08-Apr-21 11:49 35.816950 -115.142153 15 7046ft 120kts
08-Apr-21 11:50 35.848600 -115.129863 15 7044ft 119kts
08-Apr-21 11:51 35.880088 -115.117447 15 7043ft 119kts
08-Apr-21 11:52 35.911528 -115.104900 15 7041ft 118kts
08-Apr-21 11:53 35.943168 -115.092026 16 6890ft 128kts
08-Apr-21 11:54 35.979628 -115.080355 10 6188ft 138kts
08-Apr-21 11:55 36.016884 -115.070759 13 5481ft 138kts
08-Apr-21 11:56 36.052660 -115.058195 14 4793ft 137kts
08-Apr-21 11:57 36.090408 -115.050798 4 4081ft 137kts
08-Apr-21 11:58 36.128441 -115.046710 4 3385ft 138kts
08-Apr-21 11:59 36.158118 -115.053649 299 2853ft 136kts
08-Apr-21 12:00 36.169932 -115.098575 254 2639ft 122kts
08-Apr-21 12:01 36.148410 -115.126478 224 2979ft 97kts
08-Apr-21 12:02 36.126629 -115.140401 208 3246ft 75kts
08-Apr-21 12:03 36.114942 -115.147158 209 2817ft 76kts
08-Apr-21 12:04 36.105226 -115.152652 208 2447ft 68kts
08-Apr-21 12:05 36.095243 -115.159031 201 2098ft 39kts
08-Apr-21 12:06 36.089229 -115.162966 271 2127ft 18kts
08-Apr-21 12:07 36.089583 -115.163895 297 2130ft 9kts
08-Apr-21 12:08 36.089257 -115.164946 226 2134ft 0kts
08-Apr-21 12:09 36.086356 -115.166451 213 2146ft 30kts
08-Apr-21 12:10 36.082537 -115.170239 37 2165ft 18kts

Navigation Log

Ident Type
Flight plan parsing failed, navigation log unavailable